Time;durP1;ratioP1;P1;durP2;ratioP2;P2;SDS_P1;SDS_P2;PMS_P1;PMS_P2;Temp;Humidity;BMP_temperature;BMP_pressure;BME280_temperature;BME280_humidity;BME280_pressure;Samples;Min_cycle;Max_cycle;Signal;HPM_P1;HPM_P2
2021/06/23 00:02:00;;;;;;;22.15;15.15;;;27.70;62.40;;;;;;6208434;28;86287;-67
2021/06/23 00:05:00;;;;;;;22.48;14.65;;;27.70;62.50;;;;;;6229232;27;83824;-68
2021/06/23 00:08:01;;;;;;;21.63;13.52;;;27.60;63.10;;;;;;6226110;28;83729;-67
2021/06/23 00:11:01;;;;;;;21.38;14.90;;;27.70;62.40;;;;;;6229665;28;83510;-67
2021/06/23 00:14:02;;;;;;;25.65;14.88;;;27.70;62.30;;;;;;6232514;28;82898;-67
2021/06/23 00:17:02;;;;;;;24.77;14.30;;;27.70;62.20;;;;;;6230055;27;82935;-67
2021/06/23 00:20:03;;;;;;;20.02;14.70;;;27.60;62.10;;;;;;6231275;27;83117;-68
2021/06/23 00:23:03;;;;;;;18.80;14.43;;;27.60;62.30;;;;;;6228924;28;83276;-67
2021/06/23 00:26:04;;;;;;;18.00;13.95;;;27.60;62.10;;;;;;6235127;27;83963;-67
2021/06/23 00:29:05;;;;;;;22.75;13.00;;;27.70;62.20;;;;;;6227768;27;82997;-66
2021/06/23 00:32:05;;;;;;;21.42;15.40;;;27.70;62.30;;;;;;6238292;27;83041;-66
2021/06/23 00:35:06;;;;;;;21.58;13.98;;;27.60;62.00;;;;;;6226261;27;83262;-66
2021/06/23 00:38:06;;;;;;;24.58;14.55;;;27.60;62.10;;;;;;6233556;27;83307;-66
2021/06/23 00:41:07;;;;;;;22.35;14.50;;;27.60;62.10;;;;;;6232884;28;83914;-67
2021/06/23 00:44:08;;;;;;;23.35;15.30;;;27.60;62.10;;;;;;6229997;28;86110;-65
2021/06/23 00:47:08;;;;;;;23.52;15.32;;;27.60;62.30;;;;;;6233019;27;85732;-67
2021/06/23 00:50:09;;;;;;;24.15;15.13;;;27.60;62.10;;;;;;6232235;27;83351;-68
2021/06/23 00:53:33;;;;;;;20.13;14.45;;;27.60;62.10;;;;;;6234583;27;90620;-68
2021/06/23 00:56:34;;;;;;;32.30;15.40;;;27.60;62.20;;;;;;6231923;28;84574;-68
2021/06/23 00:59:35;;;;;;;21.98;15.80;;;27.60;62.30;;;;;;6229527;27;83679;-68
2021/06/23 01:02:35;;;;;;;27.42;17.20;;;27.50;62.40;;;;;;6232427;27;83510;-67
2021/06/23 01:05:36;;;;;;;30.52;17.92;;;27.50;62.40;;;;;;6233643;27;84776;-68
2021/06/23 01:08:39;;;;;;;23.77;16.38;;;27.50;62.50;;;;;;6229638;27;86169;-69
2021/06/23 01:11:41;;;;;;;22.05;15.48;;;27.50;62.60;;;;;;6226830;27;83219;-69
2021/06/23 01:14:41;;;;;;;23.63;16.10;;;27.50;62.70;;;;;;6231357;28;86139;-68
2021/06/23 01:17:42;;;;;;;21.58;15.07;;;27.50;62.80;;;;;;6232573;27;83848;-68
2021/06/23 01:20:44;;;;;;;23.35;16.48;;;27.50;62.80;;;;;;6234091;28;83017;-69
2021/06/23 01:23:45;;;;;;;28.33;16.73;;;27.40;62.80;;;;;;6231734;27;83294;-68
2021/06/23 01:26:46;;;;;;;23.70;16.77;;;27.50;63.00;;;;;;6233146;27;83549;-68
2021/06/23 01:29:47;;;;;;;24.52;15.63;;;27.50;63.00;;;;;;6233278;27;82911;-68
2021/06/23 01:33:17;;;;;;;26.95;18.50;;;27.50;63.20;;;;;;6225525;28;83081;-66
2021/06/23 01:36:17;;;;;;;24.58;16.95;;;27.50;63.20;;;;;;6235645;27;85796;-68
2021/06/23 01:39:18;;;;;;;26.88;15.93;;;27.40;63.10;;;;;;6229608;27;85815;-67
2021/06/23 01:42:22;;;;;;;25.67;16.27;;;27.50;63.30;;;;;;6238139;27;85809;-69
2021/06/23 01:45:23;;;;;;;24.23;15.93;;;27.50;63.40;;;;;;6222863;27;83069;-69
2021/06/23 01:48:23;;;;;;;24.02;16.30;;;27.50;63.30;;;;;;6231892;28;82951;-67
2021/06/23 01:51:24;;;;;;;27.85;17.13;;;27.50;63.10;;;;;;6232429;27;85296;-68
2021/06/23 01:54:26;;;;;;;23.35;15.88;;;27.50;63.00;;;;;;6235075;27;84185;-67
2021/06/23 01:57:27;;;;;;;19.65;14.70;;;27.50;63.00;;;;;;6228329;27;85945;-67
2021/06/23 02:00:31;;;;;;;24.45;16.73;;;27.60;63.10;;;;;;6223111;27;84963;-67
2021/06/23 02:03:40;;;;;;;22.55;15.73;;;27.60;63.20;;;;;;6232275;27;83183;-66
2021/06/23 02:06:42;;;;;;;23.30;16.05;;;27.60;63.00;;;;;;6229555;27;85965;-66
2021/06/23 02:09:46;;;;;;;26.55;16.20;;;27.60;63.00;;;;;;6225611;27;85547;-65
2021/06/23 02:12:56;;;;;;;24.15;14.68;;;27.60;62.90;;;;;;6230436;27;85799;-67
2021/06/23 02:15:58;;;;;;;22.58;16.33;;;27.60;63.00;;;;;;6231229;28;85311;-66
2021/06/23 02:19:00;;;;;;;23.52;17.08;;;27.60;62.90;;;;;;6230828;27;86355;-67
2021/06/23 02:22:12;;;;;;;28.00;17.17;;;27.60;63.10;;;;;;6226507;27;85580;-67
2021/06/23 02:25:17;;;;;;;26.70;17.75;;;27.60;63.10;;;;;;6231806;27;84039;-66
2021/06/23 02:28:43;;;;;;;28.55;18.08;;;27.60;63.10;;;;;;6218413;28;83395;-67
2021/06/23 02:31:48;;;;;;;25.23;17.60;;;27.60;63.10;;;;;;6231419;27;85987;-68
2021/06/23 02:34:49;;;;;;;31.80;19.02;;;27.60;63.30;;;;;;6228065;28;85807;-66
2021/06/23 02:37:59;;;;;;;25.52;17.73;;;27.50;63.30;;;;;;6219644;28;86198;-66
2021/06/23 02:40:59;;;;;;;28.45;18.17;;;27.60;63.40;;;;;;6230131;27;85742;-65
2021/06/23 02:44:00;;;;;;;26.85;18.73;;;27.50;63.40;;;;;;6238235;28;85767;-66
2021/06/23 02:47:06;;;;;;;28.57;18.63;;;27.50;63.40;;;;;;6222048;28;85361;-66
2021/06/23 02:50:26;;;;;;;30.23;19.90;;;27.50;63.60;;;;;;6229200;27;85282;-66
2021/06/23 02:53:48;;;;;;;29.73;19.25;;;27.50;63.80;;;;;;6226632;27;87802;-66
2021/06/23 02:56:48;;;;;;;28.83;18.02;;;27.50;63.80;;;;;;6232833;27;84099;-66
2021/06/23 02:59:49;;;;;;;26.98;18.67;;;27.50;63.90;;;;;;6229453;27;85771;-66
2021/06/23 03:02:50;;;;;;;28.98;19.08;;;27.50;64.10;;;;;;6229308;27;85471;-66
2021/06/23 03:05:51;;;;;;;31.55;19.60;;;27.50;64.00;;;;;;6232280;27;87652;-66
2021/06/23 03:08:52;;;;;;;43.45;20.10;;;27.40;64.00;;;;;;6229647;27;85932;-65
2021/06/23 03:12:13;;;;;;;30.27;19.13;;;27.40;64.30;;;;;;6230277;27;84272;-66
2021/06/23 03:15:30;;;;;;;27.48;19.23;;;27.40;64.30;;;;;;6214988;28;84454;-67
2021/06/23 03:18:40;;;;;;;26.42;17.25;;;27.40;64.20;;;;;;6228453;27;85824;-70
2021/06/23 03:21:41;;;;;;;28.10;18.27;;;27.50;64.10;;;;;;6228039;27;86177;-68
2021/06/23 03:24:42;;;;;;;27.52;17.88;;;27.50;64.10;;;;;;6226522;28;85576;-65
2021/06/23 03:27:43;;;;;;;32.22;19.55;;;27.50;64.30;;;;;;6228917;27;83055;-67
2021/06/23 03:30:44;;;;;;;30.45;18.98;;;27.50;64.20;;;;;;6220415;27;86267;-67
2021/06/23 03:33:45;;;;;;;28.20;19.40;;;27.40;64.20;;;;;;6229265;28;85856;-67
2021/06/23 03:36:59;;;;;;;30.95;19.48;;;27.40;64.30;;;;;;6234018;27;85939;-66
2021/06/23 03:39:59;;;;;;;29.23;20.17;;;27.40;64.50;;;;;;6228164;28;85545;-69
2021/06/23 03:43:01;;;;;;;32.08;19.63;;;27.40;64.60;;;;;;6227903;27;85636;-67
2021/06/23 03:46:02;;;;;;;31.08;19.95;;;27.30;64.70;;;;;;6231272;27;82932;-68
2021/06/23 03:49:02;;;;;;;30.85;19.00;;;27.40;64.90;;;;;;6226524;28;83034;-68
2021/06/23 03:52:06;;;;;;;28.58;18.15;;;27.40;64.90;;;;;;6219158;27;85963;-68
2021/06/23 03:55:06;;;;;;;31.73;19.67;;;27.40;64.70;;;;;;6228749;27;83280;-69
2021/06/23 03:58:10;;;;;;;28.83;19.58;;;27.40;64.70;;;;;;6224592;28;85081;-68
2021/06/23 04:01:11;;;;;;;30.63;17.52;;;27.40;64.60;;;;;;6228843;27;85580;-66
2021/06/23 04:04:32;;;;;;;32.63;21.02;;;27.40;64.50;;;;;;6238470;27;82919;-67
2021/06/23 04:07:32;;;;;;;34.15;20.40;;;27.50;64.60;;;;;;6231974;27;83051;-67
2021/06/23 04:10:33;;;;;;;33.05;22.08;;;27.50;64.50;;;;;;6228784;27;85786;-66
2021/06/23 04:13:35;;;;;;;34.22;20.98;;;27.50;64.70;;;;;;6228683;27;85471;-69
2021/06/23 04:16:35;;;;;;;31.30;20.40;;;27.50;64.60;;;;;;6236474;28;85420;-67
2021/06/23 04:19:37;;;;;;;35.50;22.85;;;27.50;64.50;;;;;;6230895;27;83162;-67
2021/06/23 04:22:40;;;;;;;28.17;19.98;;;27.50;64.50;;;;;;6231986;27;84720;-67
2021/06/23 04:25:46;;;;;;;;;;;27.50;64.40;;;;;;6242706;27;85290;-66
2021/06/23 04:28:46;;;;;;;35.88;20.75;;;27.60;64.60;;;;;;6240236;27;86167;-66
2021/06/23 04:31:47;;;;;;;34.95;22.42;;;27.60;64.50;;;;;;6240403;27;83466;-66
2021/06/23 04:34:51;;;;;;;32.67;21.02;;;27.60;64.60;;;;;;6234362;27;82946;-67
2021/06/23 04:38:04;;;;;;;32.22;21.00;;;27.60;64.50;;;;;;6235844;27;85773;-64
2021/06/23 04:41:04;;;;;;;29.45;20.33;;;27.60;64.50;;;;;;6232257;28;85619;-66
2021/06/23 04:44:10;;;;;;;30.98;21.75;;;27.70;64.60;;;;;;6229101;27;86997;-65
2021/06/23 04:47:11;;;;;;;33.05;21.58;;;27.70;65.00;;;;;;6232952;27;84135;-67
2021/06/23 04:50:11;;;;;;;31.23;20.88;;;27.70;64.60;;;;;;6230326;28;85281;-66
2021/06/23 04:53:31;;;;;;;28.42;19.48;;;27.70;64.90;;;;;;6228429;27;83521;-66
2021/06/23 04:56:34;;;;;;;30.25;20.02;;;27.70;64.20;;;;;;6205114;28;83648;-66
2021/06/23 04:59:34;;;;;;;40.47;21.05;;;27.70;64.30;;;;;;6208623;28;83043;-68
2021/06/23 05:02:36;;;;;;;28.33;20.10;;;27.80;64.40;;;;;;6203191;28;84439;-67
2021/06/23 05:05:36;;;;;;;30.75;20.42;;;27.80;64.30;;;;;;6208326;28;83568;-69
2021/06/23 05:08:37;;;;;;;32.95;20.25;;;27.80;64.20;;;;;;6207061;28;84795;-69
2021/06/23 05:11:37;;;;;;;29.00;19.70;;;27.80;63.80;;;;;;6207388;28;82989;-68
2021/06/23 05:14:38;;;;;;;32.30;21.08;;;27.80;64.00;;;;;;6208276;28;82988;-69
2021/06/23 05:17:39;;;;;;;29.23;19.45;;;27.80;64.10;;;;;;6216444;28;83474;-69
2021/06/23 05:20:39;;;;;;;35.65;21.38;;;27.80;63.40;;;;;;6216102;28;82898;-69
2021/06/23 05:23:40;;;;;;;29.65;20.33;;;27.80;63.20;;;;;;6207842;27;83765;-68
2021/06/23 05:26:40;;;;;;;32.95;20.25;;;27.80;64.00;;;;;;6207406;28;83192;-67
2021/06/23 05:29:42;;;;;;;30.92;19.50;;;27.90;64.30;;;;;;6208109;28;83163;-68
2021/06/23 05:32:42;;;;;;;37.45;21.55;;;27.80;64.80;;;;;;6215672;28;83385;-69
2021/06/23 05:35:43;;;;;;;35.40;21.35;;;27.90;64.80;;;;;;6205673;28;83544;-66
2021/06/23 05:38:43;;;;;;;31.92;20.20;;;27.90;64.00;;;;;;6209378;28;84259;-66
2021/06/23 05:41:44;;;;;;;34.80;21.52;;;27.90;63.50;;;;;;6207124;28;83444;-66
2021/06/23 05:44:44;;;;;;;36.42;21.65;;;27.90;63.40;;;;;;6209077;28;83469;-66
2021/06/23 05:47:45;;;;;;;28.88;20.10;;;27.90;63.60;;;;;;6205287;28;84142;-66
2021/06/23 05:50:45;;;;;;;32.38;20.75;;;27.90;63.90;;;;;;6208439;27;83544;-67
2021/06/23 05:53:46;;;;;;;35.90;21.48;;;27.90;64.10;;;;;;6206620;28;83837;-66
2021/06/23 05:56:46;;;;;;;34.97;21.02;;;27.90;64.60;;;;;;6202144;28;85201;-66
2021/06/23 05:59:47;;;;;;;36.00;20.55;;;27.90;63.70;;;;;;6204243;28;82947;-65
2021/06/23 06:02:47;;;;;;;35.95;21.33;;;28.00;64.80;;;;;;6205623;28;83838;-67
2021/06/23 06:05:48;;;;;;;32.83;20.70;;;28.00;64.10;;;;;;6209250;28;84080;-66
2021/06/23 06:08:48;;;;;;;36.10;21.67;;;28.00;64.40;;;;;;6205916;28;84996;-67
2021/06/23 06:11:49;;;;;;;34.38;20.77;;;28.00;64.80;;;;;;6206892;28;82895;-67
2021/06/23 06:14:52;;;;;;;31.10;20.10;;;28.00;64.60;;;;;;6207872;28;82952;-67
2021/06/23 06:17:53;;;;;;;30.00;20.02;;;28.00;64.90;;;;;;6205264;27;83148;-67
2021/06/23 06:20:56;;;;;;;29.73;19.83;;;28.00;64.70;;;;;;6209417;28;83029;-65
2021/06/23 06:23:57;;;;;;;31.25;21.17;;;28.00;64.50;;;;;;6204808;28;83170;-67
2021/06/23 06:26:57;;;;;;;31.42;20.77;;;28.00;64.70;;;;;;6208441;28;84077;-67
2021/06/23 06:29:58;;;;;;;29.13;19.83;;;28.00;64.40;;;;;;6203795;28;83044;-66
2021/06/23 06:32:58;;;;;;;31.75;20.25;;;28.00;64.40;;;;;;6199521;28;83425;-64
2021/06/23 06:35:59;;;;;;;28.60;20.30;;;28.00;64.40;;;;;;6198522;28;83858;-64
2021/06/23 06:38:59;;;;;;;31.23;20.55;;;28.00;64.60;;;;;;6201666;28;83783;-66
2021/06/23 06:42:00;;;;;;;33.75;20.50;;;28.00;64.10;;;;;;6205681;28;83697;-65
2021/06/23 06:45:00;;;;;;;29.92;20.08;;;28.00;63.60;;;;;;6212545;28;83296;-65
2021/06/23 06:48:01;;;;;;;28.27;19.05;;;28.00;64.30;;;;;;6196766;28;84150;-67
2021/06/23 06:51:01;;;;;;;34.90;19.17;;;28.00;64.40;;;;;;6205368;28;84128;-67
2021/06/23 06:54:02;;;;;;;29.23;18.30;;;28.00;64.40;;;;;;6205601;27;83592;-65
2021/06/23 06:57:03;;;;;;;29.00;18.60;;;28.00;64.10;;;;;;6200410;28;83087;-66
2021/06/23 07:00:03;;;;;;;30.88;19.00;;;28.00;63.70;;;;;;6203237;28;83227;-66
2021/06/23 07:03:04;;;;;;;30.83;18.75;;;28.00;64.70;;;;;;6206679;27;83147;-67
2021/06/23 07:06:04;;;;;;;246.50;99.80;;;28.00;64.20;;;;;;6206529;27;83133;-67
2021/06/23 07:09:05;;;;;;;291.05;116.72;;;28.00;64.40;;;;;;6205533;28;83494;-66
2021/06/23 07:12:05;;;;;;;262.80;103.85;;;28.00;64.60;;;;;;6201918;28;86398;-66
2021/06/23 07:15:06;;;;;;;180.68;70.70;;;28.00;64.70;;;;;;6202086;28;86385;-66
2021/06/23 07:18:06;;;;;;;209.75;82.05;;;28.00;64.20;;;;;;6200772;28;85354;-66
2021/06/23 07:21:07;;;;;;;287.48;112.72;;;28.10;64.50;;;;;;6200329;28;83199;-66
2021/06/23 07:24:07;;;;;;;448.50;169.57;;;28.10;64.60;;;;;;6206793;28;86101;-66
2021/06/23 07:27:08;;;;;;;287.20;115.07;;;28.00;64.40;;;;;;6203720;28;85627;-66
2021/06/23 07:30:08;;;;;;;190.98;76.88;;;28.00;64.00;;;;;;6201825;27;85880;-66
2021/06/23 07:33:09;;;;;;;202.70;81.68;;;28.10;63.60;;;;;;6205762;27;85641;-65
2021/06/23 07:36:33;;;;;;;179.05;75.70;;;28.00;63.60;;;;;;6204436;27;83554;-65
2021/06/23 07:39:33;;;;;;;153.00;63.85;;;28.00;63.80;;;;;;6206930;27;84172;-65
2021/06/23 07:42:34;;;;;;;150.75;62.08;;;28.10;64.50;;;;;;6206690;28;82873;-66
2021/06/23 07:45:36;;;;;;;140.80;58.80;;;28.10;64.00;;;;;;6204465;28;83010;-65
2021/06/23 07:48:38;;;;;;;123.55;51.80;;;28.10;63.90;;;;;;6204462;28;85553;-64
2021/06/23 08:11:00;;;;;;;67.03;32.40;;;28.10;63.70;;;;;;6202713;28;83268;-65
2021/06/23 08:14:03;;;;;;;68.03;30.52;;;28.10;63.50;;;;;;6210037;28;83664;-65
2021/06/23 08:17:04;;;;;;;63.75;29.40;;;28.10;64.20;;;;;;6202813;28;83059;-65
2021/06/23 08:20:04;;;;;;;50.95;26.27;;;28.10;63.50;;;;;;6203472;28;83416;-67
2021/06/23 08:23:05;;;;;;;49.42;24.67;;;28.10;63.50;;;;;;6205950;28;83161;-65
2021/06/23 08:26:05;;;;;;;51.08;24.27;;;28.10;63.60;;;;;;6203195;28;83213;-65
2021/06/23 08:29:06;;;;;;;42.47;22.23;;;28.10;63.60;;;;;;6203200;28;82977;-64
2021/06/23 08:32:06;;;;;;;46.60;23.67;;;28.10;63.60;;;;;;6206126;28;83773;-66
2021/06/23 08:35:07;;;;;;;48.08;22.35;;;28.10;63.70;;;;;;6199330;28;82879;-65
2021/06/23 08:38:07;;;;;;;38.83;20.05;;;28.10;64.60;;;;;;6203336;28;85204;-65
2021/06/23 08:41:08;;;;;;;38.45;19.67;;;28.00;64.40;;;;;;6203266;28;83862;-65
2021/06/23 08:44:08;;;;;;;40.50;20.80;;;28.10;65.10;;;;;;6201961;27;83159;-66
2021/06/23 08:47:09;;;;;;;38.28;19.65;;;28.10;68.20;;;;;;6196784;28;83410;-66
2021/06/23 08:50:09;;;;;;;36.40;19.75;;;28.10;68.60;;;;;;6203947;28;84142;-64
2021/06/23 08:53:10;;;;;;;31.23;19.52;;;28.10;68.20;;;;;;6204811;28;83137;-65
2021/06/23 08:56:10;;;;;;;31.30;18.08;;;28.00;66.90;;;;;;6199754;28;83468;-66
2021/06/23 08:59:11;;;;;;;34.20;19.83;;;28.10;68.90;;;;;;6200763;28;83519;-65
2021/06/23 09:02:12;;;;;;;31.63;18.88;;;28.10;68.50;;;;;;6203906;28;84220;-65
2021/06/23 09:05:12;;;;;;;36.25;20.00;;;28.20;71.50;;;;;;6205896;28;85651;-65
2021/06/23 09:08:13;;;;;;;26.58;17.15;;;28.20;71.50;;;;;;6207158;28;83415;-66
2021/06/23 09:11:13;;;;;;;31.05;18.50;;;28.20;70.40;;;;;;6208845;28;83329;-65
2021/06/23 09:14:14;;;;;;;27.85;18.80;;;28.20;70.70;;;;;;6198718;28;83019;-65
2021/06/23 09:17:15;;;;;;;27.88;18.80;;;28.20;71.10;;;;;;6206653;28;83036;-66
2021/06/23 09:20:15;;;;;;;27.52;17.95;;;28.20;71.70;;;;;;6206230;28;83228;-66
2021/06/23 09:23:16;;;;;;;29.33;18.38;;;28.20;70.70;;;;;;6206297;28;83010;-68
2021/06/23 09:26:17;;;;;;;23.38;16.80;;;28.20;69.60;;;;;;6202518;28;86059;-66
2021/06/23 09:29:17;;;;;;;32.58;18.42;;;28.20;70.80;;;;;;6210106;28;83088;-66
2021/06/23 09:32:18;;;;;;;30.35;19.15;;;28.20;69.80;;;;;;6207948;27;85909;-66
2021/06/23 09:35:18;;;;;;;28.95;19.15;;;28.20;69.60;;;;;;6206238;27;83151;-66
2021/06/23 09:38:19;;;;;;;26.80;18.15;;;28.30;71.50;;;;;;6212576;28;83112;-66
2021/06/23 09:41:19;;;;;;;29.17;18.80;;;28.20;72.60;;;;;;6208837;28;82901;-67
2021/06/23 09:44:22;;;;;;;30.40;20.55;;;28.20;72.80;;;;;;6204059;28;83587;-66
2021/06/23 09:47:22;;;;;;;31.17;20.00;;;28.30;74.00;;;;;;6211215;28;82783;-66
2021/06/23 09:50:23;;;;;;;35.03;21.70;;;28.20;73.20;;;;;;6214852;27;83280;-65
2021/06/23 09:53:23;;;;;;;30.70;19.73;;;28.20;74.80;;;;;;6209375;28;82792;-68
2021/06/23 09:56:25;;;;;;;31.17;20.17;;;28.30;73.50;;;;;;6206173;28;84833;-68
2021/06/23 09:59:26;;;;;;;27.10;17.17;;;28.20;73.40;;;;;;6206185;28;83519;-67
2021/06/23 10:02:26;;;;;;;26.25;17.50;;;28.20;72.50;;;;;;6216732;27;84163;-65
2021/06/23 10:05:28;;;;;;;27.92;17.67;;;28.20;72.30;;;;;;6207230;28;83470;-65
2021/06/23 10:08:29;;;;;;;28.58;17.85;;;28.20;72.00;;;;;;6202839;28;85142;-63
2021/06/23 10:11:29;;;;;;;27.10;18.00;;;28.30;70.70;;;;;;6207547;28;83297;-65
2021/06/23 10:14:34;;;;;;;28.05;18.65;;;28.30;69.90;;;;;;6196320;28;83800;-65
2021/06/23 10:17:34;;;;;;;27.92;17.77;;;28.20;70.80;;;;;;6212689;28;87609;-66
2021/06/23 10:20:35;;;;;;;29.20;18.83;;;28.20;70.40;;;;;;6205311;27;83006;-66
2021/06/23 10:23:35;;;;;;;30.75;18.88;;;28.20;71.20;;;;;;6203830;28;83314;-65
2021/06/23 10:26:36;;;;;;;29.35;17.52;;;28.20;70.60;;;;;;6205406;28;83510;-65
2021/06/23 10:29:36;;;;;;;24.30;17.40;;;28.20;69.60;;;;;;6205706;28;83997;-64
2021/06/23 10:32:37;;;;;;;26.75;16.98;;;28.30;69.60;;;;;;6207143;27;83703;-63
2021/06/23 10:35:37;;;;;;;25.75;17.35;;;28.30;69.30;;;;;;6204563;27;86206;-66
2021/06/23 10:38:38;;;;;;;23.17;17.48;;;28.30;68.80;;;;;;6208537;28;83602;-66
2021/06/23 10:41:39;;;;;;;25.90;18.00;;;28.30;68.60;;;;;;6203842;28;83114;-66
2021/06/23 10:44:42;;;;;;;28.30;18.42;;;28.30;68.40;;;;;;6204615;28;82952;-68
2021/06/23 10:47:42;;;;;;;23.70;17.65;;;28.40;68.20;;;;;;6204998;28;83213;-66
2021/06/23 10:50:43;;;;;;;28.55;18.67;;;28.30;68.20;;;;;;6203831;28;82684;-66
2021/06/23 10:53:43;;;;;;;24.67;17.50;;;28.40;68.00;;;;;;6202314;28;83421;-66
2021/06/23 10:56:44;;;;;;;29.60;18.08;;;28.30;68.10;;;;;;6205173;28;86210;-67
2021/06/23 10:59:45;;;;;;;28.17;18.23;;;28.30;67.90;;;;;;6209637;28;83046;-67
2021/06/23 11:02:46;;;;;;;32.53;19.90;;;28.40;67.70;;;;;;6205217;27;83227;-67
2021/06/23 11:05:47;;;;;;;30.65;21.77;;;28.40;66.60;;;;;;6204762;28;84109;-67
2021/06/23 11:08:47;;;;;;;41.72;25.25;;;28.40;65.50;;;;;;6211058;28;83408;-67
2021/06/23 11:11:48;;;;;;;38.40;26.20;;;28.30;66.10;;;;;;6204488;28;83390;-67
2021/06/23 11:14:48;;;;;;;40.85;27.65;;;28.30;65.70;;;;;;6198124;28;83898;-66
2021/06/23 11:17:49;;;;;;;42.83;29.25;;;28.30;64.80;;;;;;6200248;27;83977;-66
2021/06/23 11:20:50;;;;;;;48.58;29.73;;;28.30;64.50;;;;;;6201343;28;83319;-66
2021/06/23 11:23:51;;;;;;;43.13;28.70;;;28.30;64.10;;;;;;6207721;28;83801;-66
2021/06/23 11:26:52;;;;;;;36.60;25.05;;;28.30;63.80;;;;;;6205048;28;83804;-67
2021/06/23 11:29:52;;;;;;;35.80;25.38;;;28.30;62.80;;;;;;6201659;28;84237;-66
2021/06/23 11:32:53;;;;;;;37.30;24.42;;;28.30;62.70;;;;;;6202186;28;83284;-66
2021/06/23 11:35:53;;;;;;;36.13;25.10;;;28.30;62.50;;;;;;6203678;28;84118;-66
2021/06/23 11:38:54;;;;;;;32.72;22.85;;;28.30;62.40;;;;;;6198400;28;83391;-68
2021/06/23 11:41:54;;;;;;;35.15;23.30;;;28.30;62.70;;;;;;6198855;28;83052;-66
2021/06/23 11:44:55;;;;;;;33.40;22.20;;;28.30;62.70;;;;;;6201650;28;84113;-65
2021/06/23 11:47:55;;;;;;;37.40;22.13;;;28.30;62.80;;;;;;6201323;28;83324;-65
2021/06/23 11:50:56;;;;;;;32.92;23.00;;;28.40;62.80;;;;;;6202693;28;83273;-65
2021/06/23 11:53:56;;;;;;;33.70;22.30;;;28.40;62.90;;;;;;6203576;28;83883;-65
2021/06/23 11:56:57;;;;;;;33.67;23.25;;;28.40;62.70;;;;;;6201651;28;83476;-65
2021/06/23 11:59:57;;;;;;;34.38;23.75;;;28.40;62.60;;;;;;6201232;28;83070;-65
2021/06/23 12:02:59;;;;;;;32.17;24.90;;;28.40;62.50;;;;;;6198773;28;84502;-65
2021/06/23 12:05:59;;;;;;;41.70;28.05;;;28.40;62.50;;;;;;6202471;28;83052;-67
2021/06/23 12:09:00;;;;;;;40.63;29.40;;;28.40;62.00;;;;;;6212354;28;83337;-69
2021/06/23 12:12:00;;;;;;;38.13;27.60;;;28.40;61.80;;;;;;6206279;28;82910;-66
2021/06/23 12:15:01;;;;;;;42.33;26.60;;;28.40;61.60;;;;;;6195109;28;83165;-68
2021/06/23 12:18:01;;;;;;;32.55;23.70;;;28.40;61.70;;;;;;6205009;28;84247;-66
2021/06/23 12:21:02;;;;;;;32.75;21.08;;;28.40;61.70;;;;;;6200488;28;83274;-66
2021/06/23 12:24:02;;;;;;;30.95;21.65;;;28.30;61.60;;;;;;6205120;28;83029;-66
2021/06/23 12:27:03;;;;;;;29.80;19.63;;;28.30;61.50;;;;;;6204258;28;83049;-66
2021/06/23 12:30:03;;;;;;;29.58;20.75;;;28.30;61.40;;;;;;6198960;28;85310;-66
2021/06/23 12:33:05;;;;;;;29.73;19.52;;;28.30;61.60;;;;;;6199669;28;83540;-66
2021/06/23 12:36:06;;;;;;;32.10;19.60;;;28.40;61.40;;;;;;6202706;28;83074;-67
2021/06/23 12:39:06;;;;;;;27.20;20.25;;;28.30;61.30;;;;;;6199498;28;86287;-67
2021/06/23 12:42:07;;;;;;;36.17;20.58;;;28.30;61.60;;;;;;6199728;27;83043;-66
2021/06/23 12:45:07;;;;;;;30.15;19.70;;;28.20;61.70;;;;;;6201588;27;84021;-67
2021/06/23 12:48:08;;;;;;;27.88;19.33;;;28.20;61.50;;;;;;6207938;28;82859;-67
2021/06/23 12:51:08;;;;;;;28.25;20.38;;;28.30;61.70;;;;;;6204836;28;83106;-67
2021/06/23 12:54:09;;;;;;;30.58;21.70;;;28.30;61.50;;;;;;6206877;27;83084;-67
2021/06/23 12:57:09;;;;;;;27.80;20.33;;;28.30;61.40;;;;;;6207123;28;82993;-68
2021/06/23 13:00:10;;;;;;;27.42;20.40;;;28.30;61.60;;;;;;6206344;28;83421;-66
2021/06/23 13:03:10;;;;;;;31.02;21.30;;;28.40;61.80;;;;;;6207442;28;83585;-66
2021/06/23 13:06:11;;;;;;;34.33;20.88;;;28.30;61.50;;;;;;6205687;28;85384;-67
2021/06/23 13:09:11;;;;;;;31.63;20.77;;;28.30;61.40;;;;;;6207712;27;88532;-66
2021/06/23 13:12:12;;;;;;;35.42;21.83;;;28.30;61.40;;;;;;6204399;28;83317;-67
2021/06/23 13:15:15;;;;;;;31.40;21.52;;;28.40;61.70;;;;;;6205839;28;83525;-66
2021/06/23 13:18:16;;;;;;;27.08;20.20;;;28.40;61.50;;;;;;6199675;28;83240;-66
2021/06/23 13:21:16;;;;;;;33.42;21.80;;;28.30;61.70;;;;;;6199771;28;83231;-67
2021/06/23 13:24:17;;;;;;;30.30;21.30;;;28.30;61.60;;;;;;6205257;28;83558;-67
2021/06/23 13:27:17;;;;;;;30.00;20.98;;;28.40;61.90;;;;;;6206340;28;84068;-67
2021/06/23 13:30:18;;;;;;;35.10;19.88;;;28.40;62.00;;;;;;6206523;28;86418;-66
2021/06/23 13:33:18;;;;;;;34.20;19.42;;;28.40;62.30;;;;;;6202244;28;83331;-67
2021/06/23 13:36:19;;;;;;;27.10;20.20;;;28.40;62.60;;;;;;6205218;28;83795;-64
2021/06/23 13:39:19;;;;;;;27.70;19.60;;;28.40;62.60;;;;;;6209349;28;83626;-66
2021/06/23 13:42:20;;;;;;;28.25;20.55;;;28.40;62.40;;;;;;6215989;28;83278;-67
2021/06/23 13:45:20;;;;;;;31.25;19.35;;;28.40;62.20;;;;;;6208985;28;83358;-67
2021/06/23 13:48:21;;;;;;;28.48;19.50;;;28.40;62.30;;;;;;6207373;28;83294;-68
2021/06/23 13:51:21;;;;;;;34.42;22.10;;;28.50;62.70;;;;;;6208724;28;83384;-67
2021/06/23 13:54:22;;;;;;;27.48;20.55;;;28.40;62.20;;;;;;6207317;28;83338;-67
2021/06/23 13:57:22;;;;;;;25.58;19.17;;;28.50;62.40;;;;;;6208609;28;83202;-66
2021/06/23 14:00:23;;;;;;;30.02;19.52;;;28.50;62.40;;;;;;6204880;28;83043;-67
2021/06/23 14:03:23;;;;;;;32.08;21.38;;;28.50;62.50;;;;;;6204379;28;83623;-67
2021/06/23 14:06:24;;;;;;;31.15;20.23;;;28.50;62.90;;;;;;6207165;28;83352;-66
2021/06/23 14:09:24;;;;;;;27.95;20.60;;;28.50;62.60;;;;;;6215853;27;82954;-67
2021/06/23 14:12:25;;;;;;;32.70;21.15;;;28.50;62.70;;;;;;6209098;28;83097;-67
2021/06/23 14:15:25;;;;;;;31.20;20.38;;;28.50;63.20;;;;;;6208685;28;82768;-66
2021/06/23 14:18:26;;;;;;;31.23;20.80;;;28.50;63.30;;;;;;6208127;27;83217;-67
2021/06/23 14:21:27;;;;;;;29.25;20.48;;;28.50;63.00;;;;;;6207316;28;83872;-67
2021/06/23 14:24:27;;;;;;;28.35;19.95;;;28.50;63.10;;;;;;6207990;28;84200;-67
2021/06/23 14:27:29;;;;;;;30.60;20.67;;;28.50;63.10;;;;;;6204342;28;83407;-67
2021/06/23 14:30:29;;;;;;;31.23;19.40;;;28.50;63.50;;;;;;6204287;28;85730;-67
2021/06/23 14:33:30;;;;;;;29.25;20.30;;;28.50;63.70;;;;;;6203136;28;83529;-66
2021/06/23 14:36:31;;;;;;;31.90;21.55;;;28.60;63.80;;;;;;6203993;28;85762;-67
2021/06/23 14:39:31;;;;;;;26.92;21.73;;;28.50;64.30;;;;;;6204127;28;83776;-66
2021/06/23 14:42:32;;;;;;;32.80;22.95;;;28.50;63.80;;;;;;6215425;28;83753;-67
2021/06/23 14:45:32;;;;;;;37.88;24.38;;;28.50;63.50;;;;;;6206045;28;82968;-66
2021/06/23 14:48:33;;;;;;;33.05;23.00;;;28.50;63.70;;;;;;6206011;28;83051;-65
2021/06/23 14:51:33;;;;;;;35.47;25.35;;;28.50;64.00;;;;;;6206166;28;84898;-66
2021/06/23 14:54:34;;;;;;;32.03;24.55;;;28.50;63.20;;;;;;6204966;28;84013;-66
2021/06/23 14:57:34;;;;;;;32.63;25.35;;;28.50;63.30;;;;;;6210408;28;83900;-65
2021/06/23 15:00:35;;;;;;;33.17;23.83;;;28.50;63.60;;;;;;6206550;28;83155;-65
2021/06/23 15:03:36;;;;;;;32.13;24.20;;;28.50;63.40;;;;;;6201850;28;82975;-65
2021/06/23 15:06:36;;;;;;;38.30;25.65;;;28.50;63.50;;;;;;6205672;28;91514;-66
2021/06/23 15:09:37;;;;;;;40.42;26.20;;;28.50;63.70;;;;;;6207380;28;83074;-65
2021/06/23 15:12:37;;;;;;;36.72;24.88;;;28.50;63.90;;;;;;6210197;28;85853;-65
2021/06/23 15:15:38;;;;;;;39.47;26.42;;;28.50;64.00;;;;;;6209860;28;83009;-67
2021/06/23 15:18:38;;;;;;;38.90;27.33;;;28.50;63.90;;;;;;6204906;28;83382;-66
2021/06/23 15:21:41;;;;;;;39.45;27.10;;;28.50;63.90;;;;;;6206446;28;82989;-66
2021/06/23 15:24:44;;;;;;;41.70;27.73;;;28.60;64.60;;;;;;6206522;28;83175;-65
2021/06/23 15:27:45;;;;;;;39.22;26.65;;;28.60;63.50;;;;;;6206389;27;83314;-65
2021/06/23 15:30:45;;;;;;;36.92;26.38;;;28.60;63.60;;;;;;6203191;28;84726;-66
2021/06/23 15:33:46;;;;;;;39.30;28.40;;;28.60;63.80;;;;;;6201958;27;83489;-66
2021/06/23 15:36:46;;;;;;;38.30;28.33;;;28.60;63.80;;;;;;6211594;28;83338;-65
2021/06/23 15:39:47;;;;;;;47.17;28.27;;;28.60;64.20;;;;;;6202877;27;84125;-64